createdAt,value
2018-03-20T00:01:47.169Z,67.77
2018-03-20T00:04:13.281Z,68.12
2018-03-20T00:06:39.342Z,68.71
2018-03-20T00:09:05.324Z,69.22
2018-03-20T00:11:31.357Z,69.58
2018-03-20T00:13:57.451Z,68.87
2018-03-20T00:16:23.433Z,68.56
2018-03-20T00:18:49.429Z,68.54
2018-03-20T00:21:15.465Z,68.96
2018-03-20T00:23:41.498Z,69.13
2018-03-20T00:26:07.520Z,68.96
2018-03-20T00:28:33.532Z,69.87
2018-03-20T00:30:59.570Z,69.53
2018-03-20T00:33:25.601Z,69.90
2018-03-20T00:35:51.630Z,69.64
2018-03-20T00:38:17.604Z,70.12
2018-03-20T00:40:43.641Z,70.34
2018-03-20T00:43:09.699Z,69.81
2018-03-20T00:45:35.709Z,68.52
2018-03-20T00:48:01.717Z,68.08
2018-03-20T00:50:27.737Z,68.45
2018-03-20T00:52:53.777Z,68.00
2018-03-20T00:55:19.821Z,68.04
2018-03-20T00:57:45.818Z,67.94
2018-03-20T01:00:11.900Z,68.01
2018-03-20T01:02:37.924Z,67.46
2018-03-20T01:05:04.345Z,67.48
2018-03-20T01:07:30.339Z,67.12
2018-03-20T01:09:56.380Z,67.61
2018-03-20T01:12:22.364Z,66.86
2018-03-20T01:14:48.408Z,67.38
2018-03-20T01:17:14.470Z,66.82
2018-03-20T01:19:40.448Z,66.90
2018-03-20T01:22:06.466Z,66.45
2018-03-20T01:24:32.453Z,66.54
2018-03-20T01:26:58.669Z,66.16
2018-03-20T01:29:24.719Z,65.74
2018-03-20T01:31:50.725Z,66.36
2018-03-20T01:34:16.773Z,66.36
2018-03-20T01:36:42.751Z,65.30
2018-03-20T01:39:08.746Z,65.92
2018-03-20T01:41:34.789Z,66.10
2018-03-20T01:44:00.824Z,66.07
2018-03-20T01:46:26.859Z,66.62
2018-03-20T01:48:52.910Z,66.38
2018-03-20T01:51:18.885Z,66.26
2018-03-20T01:53:44.935Z,66.81
2018-03-20T01:56:11.053Z,67.52
2018-03-20T01:58:37.040Z,67.84
2018-03-20T02:01:03.140Z,68.86
2018-03-20T02:03:29.227Z,69.54
2018-03-20T02:05:55.205Z,68.72
2018-03-20T02:08:21.206Z,68.81
2018-03-20T02:10:47.259Z,68.67
2018-03-20T02:13:13.277Z,68.37
2018-03-20T02:15:39.370Z,69.02
2018-03-20T02:18:05.434Z,69.38
2018-03-20T02:20:31.374Z,69.68
2018-03-20T02:22:57.413Z,69.08
2018-03-20T02:25:23.420Z,67.93
2018-03-20T02:27:49.462Z,68.68
2018-03-20T02:30:15.455Z,69.26
2018-03-20T02:32:41.446Z,69.00
2018-03-20T02:35:07.476Z,69.28
2018-03-20T02:37:33.488Z,69.77
2018-03-20T02:39:59.531Z,69.56
2018-03-20T02:42:25.553Z,70.60
2018-03-20T02:44:51.607Z,70.42
2018-03-20T02:47:17.616Z,70.11
2018-03-20T02:49:43.645Z,69.99
2018-03-20T02:52:09.625Z,70.33
2018-03-20T02:54:35.652Z,70.15
2018-03-20T02:57:01.704Z,70.10
2018-03-20T02:59:27.722Z,70.07
2018-03-20T03:01:53.710Z,70.70
2018-03-20T03:04:19.828Z,71.01
2018-03-20T03:06:45.913Z,71.52
2018-03-20T03:09:11.938Z,71.29
2018-03-20T03:11:37.939Z,71.20
2018-03-20T03:14:03.977Z,71.53
2018-03-20T03:16:29.977Z,71.71
2018-03-20T03:18:55.999Z,71.25
2018-03-20T03:21:21.977Z,71.68
2018-03-20T03:23:48.074Z,71.64
2018-03-20T03:26:14.074Z,71.77
2018-03-20T03:28:40.001Z,72.26
2018-03-20T03:31:06.030Z,72.62
2018-03-20T03:33:32.066Z,72.44
2018-03-20T03:35:58.113Z,72.23
2018-03-20T03:38:24.161Z,72.50
2018-03-20T03:40:50.452Z,73.03
2018-03-20T03:43:16.470Z,73.45
2018-03-20T03:45:42.514Z,73.38
2018-03-20T03:48:08.515Z,73.51
2018-03-20T03:50:34.513Z,73.56
2018-03-20T03:53:00.536Z,73.24
2018-03-20T03:55:26.526Z,72.32
2018-03-20T03:57:52.574Z,72.52
2018-03-20T04:00:18.655Z,74.00
2018-03-20T04:02:44.689Z,73.63
2018-03-20T04:05:10.729Z,73.02
2018-03-20T04:07:36.825Z,73.08
2018-03-20T04:10:02.980Z,72.62
2018-03-20T04:12:29.034Z,72.68
2018-03-20T04:14:55.057Z,72.56
2018-03-20T04:17:21.096Z,72.44
2018-03-20T04:19:47.113Z,71.82
2018-03-20T04:22:13.134Z,72.17
2018-03-20T04:24:39.135Z,72.42
2018-03-20T04:27:05.150Z,72.99
2018-03-20T04:29:31.241Z,73.56
2018-03-20T04:31:57.245Z,74.40
2018-03-20T04:34:23.304Z,74.51
2018-03-20T04:36:49.342Z,75.36
2018-03-20T04:39:15.322Z,75.15
2018-03-20T04:41:41.366Z,75.70
2018-03-20T04:44:07.417Z,75.17
2018-03-20T04:46:33.442Z,75.57
2018-03-20T04:48:59.586Z,75.09
2018-03-20T04:51:25.661Z,75.11
2018-03-20T04:53:51.713Z,74.92
2018-03-20T04:56:17.748Z,74.54
2018-03-20T04:58:43.785Z,74.35
2018-03-20T05:01:09.813Z,74.18
2018-03-20T05:03:35.818Z,74.02
2018-03-20T05:06:01.791Z,75.68
2018-03-20T05:08:27.826Z,74.93
2018-03-20T05:10:53.865Z,74.77
2018-03-20T05:13:19.878Z,75.28
2018-03-20T05:15:45.944Z,76.22
2018-03-20T05:18:11.982Z,75.87
2018-03-20T05:20:41.017Z,76.12
2018-03-20T05:23:21.882Z,76.79
2018-03-20T05:25:47.923Z,76.68
2018-03-20T05:28:13.959Z,77.32
2018-03-20T05:30:39.994Z,77.49
2018-03-20T05:33:06.081Z,78.29
2018-03-20T05:35:32.093Z,78.14
2018-03-20T05:37:58.153Z,78.00
2018-03-20T05:40:24.166Z,77.95
2018-03-20T05:42:50.224Z,78.40
2018-03-20T05:45:16.260Z,78.48
2018-03-20T05:50:55.617Z,78.24
2018-03-20T05:53:21.710Z,78.29
2018-03-20T05:55:47.809Z,77.98
2018-03-20T05:58:13.869Z,77.80
2018-03-20T06:00:39.898Z,77.04
2018-03-20T06:03:05.915Z,77.05
2018-03-20T06:05:32.066Z,76.68
2018-03-20T06:07:58.069Z,76.75
2018-03-20T06:10:24.102Z,77.13
2018-03-20T06:12:50.130Z,76.83
2018-03-20T06:15:16.173Z,75.71
2018-03-20T06:17:42.446Z,74.65
2018-03-20T06:20:08.446Z,76.19
2018-03-20T06:22:34.564Z,76.00
2018-03-20T06:25:00.628Z,75.83
2018-03-20T06:27:26.626Z,74.19
2018-03-20T06:29:52.661Z,73.15
2018-03-20T06:32:18.660Z,74.31
2018-03-20T06:34:44.655Z,74.45
2018-03-20T06:37:10.705Z,73.71
2018-03-20T06:39:36.687Z,73.18
2018-03-20T06:42:03.019Z,72.98
2018-03-20T06:44:29.057Z,73.70
2018-03-20T06:46:55.074Z,72.54
2018-03-20T06:49:21.085Z,73.06
2018-03-20T06:51:47.090Z,72.50
2018-03-20T06:54:13.142Z,72.44
2018-03-20T06:56:39.178Z,72.47
2018-03-20T06:59:05.241Z,71.48
2018-03-20T07:01:31.299Z,71.58
2018-03-20T07:03:57.334Z,70.74
2018-03-20T07:06:23.313Z,69.67
2018-03-20T07:08:49.242Z,69.49
2018-03-20T07:11:15.217Z,67.99
2018-03-20T07:13:41.789Z,67.52
2018-03-20T07:16:07.801Z,66.92
2018-03-20T07:18:33.857Z,66.95
2018-03-20T07:20:59.852Z,65.85
2018-03-20T07:23:25.879Z,65.29
2018-03-20T07:25:51.960Z,64.71
2018-03-20T07:28:18.050Z,64.51
2018-03-20T07:30:43.994Z,64.09
2018-03-20T07:33:09.977Z,63.45
2018-03-20T07:35:36.003Z,61.60
2018-03-20T07:38:02.000Z,60.18
2018-03-20T07:40:28.018Z,59.00
2018-03-20T07:42:54.027Z,56.37
2018-03-20T07:45:20.041Z,55.55
2018-03-20T07:47:46.038Z,54.84
2018-03-20T07:50:12.057Z,55.13
2018-03-20T07:52:38.082Z,55.02
2018-03-20T07:55:04.070Z,55.14
2018-03-20T07:57:30.081Z,54.73
2018-03-20T07:59:56.160Z,54.81
2018-03-20T08:02:22.184Z,54.93
2018-03-20T08:04:48.209Z,55.46
2018-03-20T08:07:14.238Z,55.03
2018-03-20T08:09:40.424Z,55.46
2018-03-20T08:12:06.458Z,55.79
2018-03-20T08:14:32.497Z,55.63
2018-03-20T08:16:58.510Z,54.31
2018-03-20T08:19:24.556Z,52.79
2018-03-20T08:21:50.580Z,51.87
2018-03-20T08:24:16.609Z,52.64
2018-03-20T08:26:42.673Z,50.12
2018-03-20T08:29:08.665Z,52.18
2018-03-20T08:31:34.674Z,51.39
2018-03-20T08:34:00.652Z,52.43
2018-03-20T08:36:26.722Z,51.18
2018-03-20T08:38:52.765Z,51.10
2018-03-20T08:41:18.709Z,50.82
2018-03-20T08:43:44.710Z,49.57
2018-03-20T08:46:10.678Z,49.62
2018-03-20T08:48:36.722Z,50.18
2018-03-20T08:51:02.822Z,48.29
2018-03-20T08:53:28.846Z,48.42
2018-03-20T08:55:54.918Z,47.50
2018-03-20T08:58:20.927Z,47.10
2018-03-20T09:00:47.290Z,46.75
2018-03-20T09:03:13.346Z,47.62
2018-03-20T09:05:39.358Z,45.67
2018-03-20T09:08:05.878Z,45.06
2018-03-20T09:10:32.000Z,42.76
2018-03-20T09:12:58.040Z,44.12
2018-03-20T09:15:24.071Z,44.80
2018-03-20T09:17:50.096Z,40.75
2018-03-20T09:20:16.118Z,42.06
2018-03-20T09:22:42.109Z,41.57
2018-03-20T09:25:08.126Z,39.46
2018-03-20T09:27:34.169Z,40.00
2018-03-20T09:30:00.183Z,39.59
2018-03-20T09:32:26.198Z,40.09
2018-03-20T09:34:52.169Z,41.17
2018-03-20T09:37:18.159Z,40.35
2018-03-20T09:39:44.204Z,40.47
2018-03-20T09:42:10.270Z,40.81
2018-03-20T09:44:36.369Z,40.43
2018-03-20T09:47:02.389Z,41.18
2018-03-20T09:49:28.434Z,40.50
2018-03-20T09:51:54.446Z,41.22
2018-03-20T09:54:20.480Z,40.81
2018-03-20T09:56:46.509Z,41.43
2018-03-20T09:59:12.474Z,41.82
2018-03-20T10:01:38.551Z,41.18
2018-03-20T10:04:04.577Z,40.91
2018-03-20T10:06:30.615Z,41.98
2018-03-20T10:08:56.648Z,41.23
2018-03-20T10:11:22.702Z,40.97
2018-03-20T10:13:48.733Z,40.30
2018-03-20T10:16:14.750Z,41.48
2018-03-20T10:18:40.776Z,40.86
2018-03-20T10:21:06.725Z,39.66
2018-03-20T10:23:32.752Z,39.75
2018-03-20T10:25:58.773Z,38.60
2018-03-20T10:28:24.762Z,37.74
2018-03-20T10:30:50.794Z,37.66
2018-03-20T10:33:16.803Z,35.50
2018-03-20T10:35:42.819Z,36.20
2018-03-20T10:38:09.162Z,36.50
2018-03-20T10:40:35.189Z,36.33
2018-03-20T10:43:01.166Z,35.38
2018-03-20T10:45:27.174Z,36.86
2018-03-20T10:47:53.261Z,36.93
2018-03-20T10:50:19.277Z,37.84
2018-03-20T10:52:45.336Z,39.09
2018-03-20T10:55:11.392Z,39.01
2018-03-20T10:57:37.468Z,39.68
2018-03-20T11:00:03.809Z,39.11
2018-03-20T11:02:30.664Z,39.11
2018-03-20T11:04:56.722Z,39.01
2018-03-20T11:07:22.787Z,38.86
2018-03-20T11:09:49.353Z,39.56
2018-03-20T11:12:15.362Z,39.14
2018-03-20T11:14:41.405Z,39.36
2018-03-20T11:17:07.430Z,39.74
2018-03-20T11:19:33.480Z,39.09
2018-03-20T11:21:59.569Z,39.12
2018-03-20T11:24:25.684Z,39.04
2018-03-20T11:26:51.665Z,39.98
2018-03-20T11:29:17.693Z,40.11
2018-03-20T11:31:43.826Z,41.15
2018-03-20T11:34:09.911Z,41.49
2018-03-20T11:36:35.981Z,39.54
2018-03-20T11:39:02.034Z,39.99
2018-03-20T11:41:28.041Z,40.32
2018-03-20T11:43:54.072Z,40.44
2018-03-20T11:46:20.072Z,40.79
2018-03-20T11:48:46.061Z,42.02
2018-03-20T11:51:12.087Z,42.13
2018-03-20T11:53:38.102Z,43.20
2018-03-20T11:56:04.160Z,43.29
2018-03-20T11:58:30.437Z,43.24
2018-03-20T12:00:56.514Z,42.96
2018-03-20T12:03:22.529Z,43.29
2018-03-20T12:05:48.522Z,44.40
2018-03-20T12:08:26.690Z,45.20
2018-03-20T12:10:52.750Z,45.78
2018-03-20T12:13:19.234Z,46.43
2018-03-20T12:15:45.279Z,46.94
2018-03-20T12:18:11.318Z,47.46
2018-03-20T12:20:37.330Z,47.71
2018-03-20T12:23:03.386Z,47.93
2018-03-20T12:25:29.446Z,48.85
2018-03-20T12:27:55.502Z,48.96
2018-03-20T12:30:21.587Z,48.97
2018-03-20T12:32:47.613Z,49.40
2018-03-20T12:35:13.618Z,49.86
2018-03-20T12:37:39.666Z,50.94
2018-03-20T12:40:05.689Z,50.15
2018-03-20T12:42:31.784Z,50.17
2018-03-20T12:44:57.798Z,50.50
2018-03-20T12:47:23.821Z,52.06
2018-03-20T12:49:49.885Z,53.23
2018-03-20T12:52:15.906Z,54.61
2018-03-20T12:54:41.965Z,55.07
2018-03-20T12:57:07.961Z,55.40
2018-03-20T12:59:33.952Z,55.78
2018-03-20T13:01:59.975Z,56.27
2018-03-20T13:04:26.009Z,56.47
2018-03-20T13:06:51.965Z,56.17
2018-03-20T13:09:18.001Z,56.96
2018-03-20T13:11:44.058Z,57.34
2018-03-20T13:14:10.136Z,57.63
2018-03-20T13:16:36.240Z,56.98
2018-03-20T13:19:02.238Z,57.31
2018-03-20T13:21:28.263Z,56.69
2018-03-20T13:23:54.259Z,57.17
2018-03-20T13:26:20.286Z,57.27
2018-03-20T13:28:46.333Z,57.08
2018-03-20T13:31:12.405Z,57.51
2018-03-20T13:33:38.410Z,58.28
2018-03-20T13:36:04.522Z,58.60
2018-03-20T13:38:30.542Z,58.61
2018-03-20T13:40:56.580Z,59.06
2018-03-20T13:43:22.525Z,59.49
2018-03-20T13:45:48.597Z,60.75
2018-03-20T13:48:14.622Z,62.55
2018-03-20T13:50:40.629Z,64.26
2018-03-20T13:53:06.702Z,64.55
2018-03-20T13:55:32.753Z,65.85
2018-03-20T13:57:58.794Z,68.71
2018-03-20T14:00:24.837Z,69.45
2018-03-20T14:02:50.861Z,70.75
2018-03-20T14:05:16.917Z,71.52
2018-03-20T14:07:42.908Z,72.87
2018-03-20T14:10:08.930Z,75.54
2018-03-20T14:12:34.978Z,77.63
2018-03-20T14:15:00.977Z,78.04
2018-03-20T14:17:27.032Z,79.08
2018-03-20T14:19:53.097Z,79.62
2018-03-20T14:22:19.077Z,79.03
2018-03-20T14:24:45.108Z,80.73
2018-03-20T14:27:11.165Z,79.56
2018-03-20T14:29:37.868Z,80.25
2018-03-20T14:32:04.117Z,80.36
2018-03-20T14:34:30.090Z,80.68
2018-03-20T14:36:56.114Z,82.53
2018-03-20T14:39:22.169Z,81.40
2018-03-20T14:41:48.192Z,81.83
2018-03-20T14:44:14.192Z,82.59
2018-03-20T14:46:40.230Z,82.10
2018-03-20T14:49:06.290Z,82.13
2018-03-20T14:51:32.430Z,83.05
2018-03-20T14:53:58.423Z,83.81
2018-03-20T14:56:24.753Z,83.57
2018-03-20T14:58:50.754Z,84.87
2018-03-20T15:01:16.869Z,83.17
2018-03-20T15:03:42.942Z,83.52
2018-03-20T15:06:08.963Z,84.32
2018-03-20T15:08:35.030Z,84.36
2018-03-20T15:11:01.011Z,84.01
2018-03-20T15:13:26.976Z,83.63
2018-03-20T15:15:53.039Z,84.03
2018-03-20T15:18:19.083Z,83.12
2018-03-20T15:20:45.118Z,84.23
2018-03-20T15:23:11.138Z,84.05
2018-03-20T15:25:37.237Z,84.38
2018-03-20T15:28:03.278Z,84.04
2018-03-20T15:30:29.370Z,84.40
2018-03-20T15:32:55.483Z,83.59
2018-03-20T15:35:21.586Z,84.75
2018-03-20T15:37:47.757Z,84.31
2018-03-20T15:40:14.464Z,83.90
2018-03-20T15:42:40.531Z,83.40
2018-03-20T15:45:07.189Z,83.71
2018-03-20T15:47:33.300Z,83.18
2018-03-20T15:49:59.414Z,83.14
2018-03-20T15:52:25.456Z,82.44
2018-03-20T15:54:51.591Z,81.88
2018-03-20T15:57:17.636Z,82.10
2018-03-20T15:59:43.719Z,82.75
2018-03-20T16:02:09.770Z,82.37
2018-03-20T16:04:35.791Z,81.85
2018-03-20T16:07:01.886Z,82.50
2018-03-20T16:09:27.924Z,81.44
2018-03-20T16:11:53.933Z,81.74
2018-03-20T16:14:20.018Z,81.60
2018-03-20T16:16:46.048Z,82.30
2018-03-20T16:19:12.857Z,81.53
2018-03-20T16:21:38.927Z,82.31
2018-03-20T16:24:05.004Z,82.00
2018-03-20T16:26:31.082Z,82.10
2018-03-20T16:28:57.149Z,82.81
2018-03-20T16:31:23.170Z,83.22
2018-03-20T16:33:49.222Z,83.19
2018-03-20T16:36:15.265Z,83.55
2018-03-20T16:38:41.269Z,83.54
2018-03-20T16:41:07.286Z,84.22
2018-03-20T16:43:33.333Z,84.14
2018-03-20T16:45:59.436Z,84.50
2018-03-20T16:48:25.485Z,84.94
2018-03-20T16:50:51.479Z,85.30
2018-03-20T16:53:17.519Z,84.82
2018-03-20T16:55:43.549Z,84.57
2018-03-20T16:58:09.609Z,84.26
2018-03-20T17:00:35.625Z,84.99
2018-03-20T17:03:01.714Z,85.04
2018-03-20T17:05:27.719Z,84.62
2018-03-20T17:07:53.776Z,84.01
2018-03-20T17:10:19.865Z,84.60
2018-03-20T17:12:45.934Z,84.44
2018-03-20T17:15:11.944Z,84.91
2018-03-20T17:17:37.984Z,83.94
2018-03-20T17:20:04.111Z,84.53
2018-03-20T17:22:30.199Z,84.93
2018-03-20T17:24:56.335Z,84.29
2018-03-20T17:27:22.362Z,85.18
2018-03-20T17:29:48.367Z,84.96
2018-03-20T17:32:14.402Z,85.14
2018-03-20T17:34:40.483Z,84.72
2018-03-20T17:37:06.470Z,84.83
2018-03-20T17:39:32.549Z,84.93
2018-03-20T17:41:58.609Z,84.82
2018-03-20T17:44:24.642Z,85.01
2018-03-20T17:46:51.077Z,84.52
2018-03-20T17:49:17.239Z,84.69
2018-03-20T17:51:43.266Z,84.94
2018-03-20T17:54:09.246Z,84.96
2018-03-20T17:56:35.351Z,85.57
2018-03-20T17:59:01.355Z,85.64
2018-03-20T18:01:27.566Z,85.23
2018-03-20T18:03:53.887Z,85.61
2018-03-20T18:06:20.303Z,85.30
2018-03-20T18:08:46.577Z,85.36
2018-03-20T18:11:12.601Z,84.91
2018-03-20T18:13:38.630Z,85.49
2018-03-20T18:16:04.730Z,85.86
2018-03-20T18:18:30.930Z,85.34
2018-03-20T18:20:56.961Z,85.05
2018-03-20T18:23:23.006Z,84.93
2018-03-20T18:25:49.014Z,85.73
2018-03-20T18:28:15.138Z,86.11
2018-03-20T18:30:41.199Z,86.57
2018-03-20T18:33:07.340Z,86.67
2018-03-20T18:35:33.338Z,86.15
2018-03-20T18:37:59.392Z,87.07
2018-03-20T18:40:25.462Z,87.32
2018-03-20T18:42:51.497Z,87.67
2018-03-20T18:45:17.561Z,88.01
2018-03-20T18:47:43.570Z,88.00
2018-03-20T18:50:09.558Z,88.07
2018-03-20T18:52:35.611Z,87.98
2018-03-20T18:55:01.666Z,87.71
2018-03-20T18:57:27.698Z,87.57
2018-03-20T18:59:53.823Z,87.63
2018-03-20T19:02:19.898Z,87.24
2018-03-20T19:04:46.035Z,87.11
2018-03-20T19:07:12.193Z,85.96
2018-03-20T19:09:38.374Z,86.01
2018-03-20T19:12:04.477Z,85.51
2018-03-20T19:14:30.547Z,85.81
2018-03-20T19:16:56.565Z,84.79
2018-03-20T19:19:22.657Z,84.57
2018-03-20T19:21:48.693Z,84.64
2018-03-20T19:24:14.738Z,84.55
2018-03-20T19:26:40.876Z,84.80
2018-03-20T19:29:06.942Z,85.01
2018-03-20T19:31:33.003Z,85.03
2018-03-20T19:33:59.491Z,84.79
2018-03-20T19:36:25.464Z,85.09
2018-03-20T19:38:51.506Z,84.73
2018-03-20T19:41:17.629Z,85.26
2018-03-20T19:43:43.666Z,85.13
2018-03-20T19:46:09.674Z,84.51
2018-03-20T19:48:35.666Z,84.67
2018-03-20T19:51:01.783Z,84.27
2018-03-20T19:53:27.793Z,83.94
2018-03-20T19:55:53.815Z,84.10
2018-03-20T19:58:19.889Z,82.96
2018-03-20T20:00:46.105Z,82.72
2018-03-20T20:03:12.272Z,82.84
2018-03-20T20:05:38.536Z,82.06
2018-03-20T20:08:04.669Z,82.19
2018-03-20T20:10:30.805Z,81.72
2018-03-20T20:12:56.838Z,81.46
2018-03-20T20:15:23.013Z,81.71
2018-03-20T20:17:49.069Z,81.45
2018-03-20T20:20:15.086Z,81.27
2018-03-20T20:22:45.047Z,81.11
2018-03-20T20:25:11.125Z,80.91
2018-03-20T20:27:37.130Z,80.59
2018-03-20T20:30:03.490Z,81.24
2018-03-20T20:32:29.511Z,80.80
2018-03-20T20:34:55.541Z,81.44
2018-03-20T20:37:21.659Z,81.15
2018-03-20T20:39:47.727Z,81.12
2018-03-20T20:42:13.806Z,81.30
2018-03-20T20:44:39.913Z,81.35
2018-03-20T20:47:06.043Z,81.02
2018-03-20T20:49:32.161Z,81.17
2018-03-20T20:51:58.222Z,80.86
2018-03-20T20:54:24.283Z,80.88
2018-03-20T20:56:50.362Z,80.82
2018-03-20T20:59:16.458Z,81.32
2018-03-20T21:01:42.511Z,80.36
2018-03-20T21:04:10.459Z,80.59
2018-03-20T21:06:36.494Z,81.13
2018-03-20T21:09:02.493Z,81.18
2018-03-20T21:11:28.567Z,80.33
2018-03-20T21:13:54.587Z,80.58
2018-03-20T21:16:20.646Z,80.57
2018-03-20T21:18:46.658Z,80.56
2018-03-20T21:21:12.690Z,80.49
2018-03-20T21:23:39.011Z,79.43
2018-03-20T21:26:04.989Z,79.30
2018-03-20T21:28:31.045Z,78.95
2018-03-20T21:30:57.062Z,78.21
2018-03-20T21:33:23.122Z,79.01
2018-03-20T21:35:49.189Z,78.61
2018-03-20T21:38:15.232Z,77.85
2018-03-20T21:40:41.226Z,78.91
2018-03-20T21:43:07.306Z,78.48
2018-03-20T21:45:33.359Z,78.48
2018-03-20T21:47:59.429Z,78.61
2018-03-20T21:50:25.407Z,78.29
2018-03-20T21:52:51.425Z,77.62
2018-03-20T21:55:17.439Z,78.11
2018-03-20T21:57:43.500Z,77.87
2018-03-20T22:00:09.494Z,77.88
2018-03-20T22:02:35.537Z,77.77
2018-03-20T22:05:01.607Z,77.06
2018-03-20T22:07:27.634Z,77.35
2018-03-20T22:09:53.740Z,76.48
2018-03-20T22:12:19.746Z,76.69
2018-03-20T22:14:46.074Z,76.59
2018-03-20T22:17:12.150Z,77.22
2018-03-20T22:19:38.155Z,77.22
2018-03-20T22:22:04.270Z,76.84
2018-03-20T22:24:30.283Z,76.63
2018-03-20T22:26:56.325Z,77.02
2018-03-20T22:29:22.345Z,77.01
2018-03-20T22:31:48.381Z,77.16
2018-03-20T22:34:14.357Z,77.37
2018-03-20T22:36:40.398Z,77.16
2018-03-20T22:39:06.450Z,77.54
2018-03-20T22:41:32.472Z,77.67
2018-03-20T22:43:58.519Z,78.18
2018-03-20T22:46:24.549Z,77.74
2018-03-20T22:48:50.558Z,77.93
2018-03-20T22:51:16.577Z,78.63
2018-03-20T22:53:42.638Z,78.89
2018-03-20T22:56:08.657Z,79.17
2018-03-20T22:58:34.652Z,79.26
2018-03-20T23:01:00.690Z,79.38
2018-03-20T23:03:26.745Z,79.98
2018-03-20T23:05:52.813Z,79.99
2018-03-20T23:08:18.804Z,79.86
2018-03-20T23:10:44.810Z,79.62
2018-03-20T23:13:10.794Z,80.27
2018-03-20T23:15:36.826Z,80.75
2018-03-20T23:18:02.839Z,80.94
2018-03-20T23:20:28.820Z,81.10
2018-03-20T23:22:54.848Z,80.36
2018-03-20T23:25:20.913Z,80.46
2018-03-20T23:27:46.916Z,80.28
2018-03-20T23:30:12.957Z,79.58
2018-03-20T23:32:38.965Z,79.07
2018-03-20T23:35:05.017Z,79.07
2018-03-20T23:37:31.064Z,77.89
2018-03-20T23:39:57.122Z,77.50
2018-03-20T23:42:23.155Z,78.02
2018-03-20T23:47:15.161Z,76.79
2018-03-20T23:49:41.242Z,75.76
2018-03-20T23:52:07.250Z,75.75
2018-03-20T23:54:33.304Z,75.52
2018-03-20T23:56:59.324Z,75.43
2018-03-20T23:59:25.342Z,75.28
